Time;durP1;ratioP1;P1;durP2;ratioP2;P2;SDS_P1;SDS_P2;PMS_P1;PMS_P2;Temp;Humidity;BMP_temperature;BMP_pressure;BME280_temperature;BME280_humidity;BME280_pressure;Samples;Min_cycle;Max_cycle;Signal;HPM_P1;HPM_P2
2022/04/03 00:01:14;;;;;;;8.27;4.47;;;;;;;;;;6130473;23;20021;-82
2022/04/03 00:03:41;;;;;;;5.25;4.10;;;;;;;;;;6130940;23;20086;-82
2022/04/03 00:06:07;;;;;;;7.32;4.53;;;;;;;;;;6130165;23;20049;-82
2022/04/03 00:08:33;;;;;;;6.75;4.03;;;;;;;;;;6130349;23;20017;-81
2022/04/03 00:10:59;;;;;;;5.97;4.20;;;;;;;;;;6129798;23;20331;-82
2022/04/03 00:13:26;;;;;;;11.18;5.40;;;;;;;;;;6129797;23;20078;-81
2022/04/03 00:15:52;;;;;;;6.25;4.35;;;;;;;;;;6105363;23;20027;-82
2022/04/03 00:18:18;;;;;;;7.13;4.45;;;;;;;;;;6105509;23;20018;-81
2022/04/03 00:20:46;;;;;;;5.80;3.97;;;;;;;;;;6129520;23;20346;-82
2022/04/03 00:23:12;;;;;;;7.18;3.80;;;;;;;;;;6105292;23;20021;-82
2022/04/03 00:25:39;;;;;;;3.20;2.90;;;;;;;;;;6105589;23;20319;-82
2022/04/03 00:28:05;;;;;;;8.65;2.92;;;;;;;;;;6104958;23;20459;-82
2022/04/03 00:30:31;;;;;;;5.38;3.88;;;;;;;;;;6105854;23;20052;-81
2022/04/03 00:32:57;;;;;;;5.95;3.13;;;;;;;;;;6106065;23;20022;-82
2022/04/03 00:35:24;;;;;;;3.70;2.70;;;;;;;;;;6129503;23;20085;-82
2022/04/03 00:37:50;;;;;;;7.20;2.60;;;;;;;;;;6105843;23;20060;-81
2022/04/03 00:40:17;;;;;;;9.40;3.50;;;;;;;;;;6130170;23;20018;-81
2022/04/03 00:42:44;;;;;;;10.60;3.38;;;;;;;;;;6129929;23;20449;-81
2022/04/03 00:45:10;;;;;;;7.97;3.30;;;;;;;;;;6130309;23;20462;-82
2022/04/03 00:47:36;;;;;;;5.75;3.35;;;;;;;;;;6100666;23;20022;-82
2022/04/03 00:50:03;;;;;;;6.57;3.00;;;;;;;;;;6124885;23;20070;-82
2022/04/03 00:52:29;;;;;;;8.63;3.10;;;;;;;;;;6100409;23;20022;-83
2022/04/03 00:54:55;;;;;;;4.72;2.92;;;;;;;;;;6124207;23;20029;-83
2022/04/03 00:57:22;;;;;;;4.43;2.90;;;;;;;;;;6123740;23;20344;-82
2022/04/03 00:59:49;;;;;;;2.92;2.42;;;;;;;;;;6124667;23;20076;-83
2022/04/03 01:02:15;;;;;;;4.65;3.95;;;;;;;;;;6100149;23;20297;-82
2022/04/03 01:04:41;;;;;;;2.90;2.63;;;;;;;;;;6124463;23;20400;-83
2022/04/03 01:07:08;;;;;;;2.08;1.85;;;;;;;;;;6125067;23;20018;-83
2022/04/03 01:09:34;;;;;;;5.90;2.42;;;;;;;;;;6101867;23;20014;-83
2022/04/03 01:12:00;;;;;;;5.57;2.58;;;;;;;;;;6102070;23;20065;-83
2022/04/03 01:14:31;;;;;;;3.33;2.15;;;;;;;;;;6125887;23;20045;-84
2022/04/03 01:16:57;;;;;;;8.63;2.55;;;;;;;;;;6125539;23;20023;-84
2022/04/03 01:19:24;;;;;;;3.60;2.53;;;;;;;;;;6126456;23;20029;-82
2022/04/03 01:21:51;;;;;;;2.85;1.92;;;;;;;;;;6101782;23;20022;-83
2022/04/03 01:24:20;;;;;;;2.50;2.30;;;;;;;;;;6101428;23;20490;-83
2022/04/03 01:26:47;;;;;;;4.13;2.28;;;;;;;;;;6101983;23;20069;-83
2022/04/03 01:29:13;;;;;;;3.28;2.20;;;;;;;;;;6102181;23;20017;-83
2022/04/03 01:31:39;;;;;;;2.97;2.40;;;;;;;;;;6126418;23;20053;-83
2022/04/03 01:34:05;;;;;;;11.07;4.65;;;;;;;;;;6102577;23;20088;-83
2022/04/03 01:36:31;;;;;;;2.60;1.85;;;;;;;;;;6102203;23;20026;-82
2022/04/03 01:38:57;;;;;;;2.33;2.13;;;;;;;;;;6101194;23;20057;-82
2022/04/03 01:41:23;;;;;;;5.75;1.95;;;;;;;;;;6101970;23;20018;-82
2022/04/03 01:43:49;;;;;;;2.28;1.98;;;;;;;;;;6126212;23;20017;-82
2022/04/03 01:46:15;;;;;;;2.22;1.92;;;;;;;;;;6101648;23;20045;-82
2022/04/03 01:48:42;;;;;;;4.68;1.80;;;;;;;;;;6101757;23;20025;-82
2022/04/03 01:51:08;;;;;;;4.60;2.70;;;;;;;;;;6101505;23;20065;-81
2022/04/03 01:53:34;;;;;;;2.22;1.80;;;;;;;;;;6126028;23;20018;-81
2022/04/03 01:56:04;;;;;;;5.13;2.00;;;;;;;;;;6101383;23;20025;-84
2022/04/03 01:58:30;;;;;;;5.63;2.30;;;;;;;;;;6125439;23;20018;-82
2022/04/03 02:00:57;;;;;;;2.75;1.65;;;;;;;;;;6101039;23;20042;-81
2022/04/03 02:03:23;;;;;;;4.05;1.70;;;;;;;;;;6101254;23;20157;-81
2022/04/03 02:05:49;;;;;;;3.42;1.70;;;;;;;;;;6126581;23;20018;-81
2022/04/03 02:08:15;;;;;;;5.15;2.35;;;;;;;;;;6126519;23;20018;-81
2022/04/03 02:10:42;;;;;;;3.92;2.20;;;;;;;;;;6125595;23;20014;-82
2022/04/03 02:13:08;;;;;;;5.28;2.05;;;;;;;;;;6125725;23;20022;-81
2022/04/03 02:15:37;;;;;;;2.85;2.03;;;;;;;;;;6125259;23;20387;-82
2022/04/03 02:18:04;;;;;;;3.08;2.10;;;;;;;;;;6125521;23;20392;-82
2022/04/03 02:20:31;;;;;;;3.55;1.60;;;;;;;;;;6125116;23;20018;-82
2022/04/03 02:22:58;;;;;;;4.95;2.03;;;;;;;;;;6101705;23;20033;-82
2022/04/03 02:25:25;;;;;;;3.85;2.17;;;;;;;;;;6125767;23;20017;-82
2022/04/03 02:27:55;;;;;;;3.85;1.85;;;;;;;;;;6125810;23;20022;-82
2022/04/03 02:30:21;;;;;;;2.35;2.00;;;;;;;;;;6100832;23;20390;-81
2022/04/03 02:32:47;;;;;;;2.30;1.88;;;;;;;;;;6125525;23;20025;-82
2022/04/03 02:35:14;;;;;;;3.28;2.22;;;;;;;;;;6101151;23;20022;-82
2022/04/03 02:37:41;;;;;;;1.55;1.45;;;;;;;;;;6101085;23;20018;-82
2022/04/03 02:40:08;;;;;;;2.55;1.75;;;;;;;;;;6100509;23;20018;-83
2022/04/03 02:42:34;;;;;;;2.42;1.90;;;;;;;;;;6125359;23;20104;-82
2022/04/03 02:45:01;;;;;;;2.78;1.80;;;;;;;;;;6100754;23;20474;-84
2022/04/03 02:47:27;;;;;;;3.03;1.60;;;;;;;;;;6124965;23;20053;-82
2022/04/03 02:49:53;;;;;;;2.65;1.50;;;;;;;;;;6100494;23;20018;-82
2022/04/03 02:52:20;;;;;;;2.40;1.60;;;;;;;;;;6124891;23;20020;-83
2022/04/03 02:54:46;;;;;;;3.08;1.55;;;;;;;;;;6125008;23;20022;-83
2022/04/03 02:57:12;;;;;;;1.65;1.15;;;;;;;;;;6124971;23;20024;-83
2022/04/03 02:59:39;;;;;;;4.57;1.70;;;;;;;;;;6101209;23;20080;-85
2022/04/03 03:02:05;;;;;;;4.35;1.40;;;;;;;;;;6099883;23;20497;-83
2022/04/03 03:04:37;;;;;;;2.03;1.38;;;;;;;;;;6124978;23;20017;-83
2022/04/03 03:07:07;;;;;;;1.60;1.50;;;;;;;;;;6100505;23;20065;-83
2022/04/03 03:09:34;;;;;;;2.60;1.70;;;;;;;;;;6124703;23;20412;-82
2022/04/03 03:12:00;;;;;;;8.57;1.73;;;;;;;;;;6100415;23;20018;-82
2022/04/03 03:14:26;;;;;;;1.60;1.50;;;;;;;;;;6126792;23;20021;-83
2022/04/03 03:16:53;;;;;;;2.85;1.88;;;;;;;;;;6127005;23;20339;-82
2022/04/03 03:19:19;;;;;;;3.95;1.58;;;;;;;;;;6127116;23;20022;-83
2022/04/03 03:21:45;;;;;;;5.68;1.50;;;;;;;;;;6126811;23;20112;-83
2022/04/03 03:24:11;;;;;;;7.50;2.08;;;;;;;;;;6124491;23;20029;-83
2022/04/03 03:26:37;;;;;;;2.55;1.95;;;;;;;;;;6124990;23;20018;-83
2022/04/03 03:29:03;;;;;;;1.90;1.58;;;;;;;;;;6100508;23;20018;-82
2022/04/03 03:31:29;;;;;;;2.25;2.05;;;;;;;;;;6100882;23;20026;-82
2022/04/03 03:33:56;;;;;;;5.55;1.70;;;;;;;;;;6125754;23;20081;-82
2022/04/03 03:36:22;;;;;;;2.92;1.92;;;;;;;;;;6125623;23;20018;-82
2022/04/03 03:38:48;;;;;;;2.17;1.92;;;;;;;;;;6100833;23;20025;-82
2022/04/03 03:41:14;;;;;;;3.03;2.17;;;;;;;;;;6125536;23;20077;-82
2022/04/03 03:43:40;;;;;;;3.10;2.78;;;;;;;;;;6100419;23;20020;-82
2022/04/03 03:46:08;;;;;;;4.30;2.70;;;;;;;;;;6100998;23;20018;-83
2022/04/03 03:48:34;;;;;;;7.03;2.63;;;;;;;;;;6124327;23;20085;-82
2022/04/03 03:51:00;;;;;;;5.57;2.83;;;;;;;;;;6099891;23;20017;-84
2022/04/03 03:53:26;;;;;;;3.65;3.28;;;;;;;;;;6125147;23;20049;-84
2022/04/03 03:55:52;;;;;;;4.95;3.03;;;;;;;;;;6124983;23;20025;-83
2022/04/03 03:58:19;;;;;;;3.22;2.78;;;;;;;;;;6124977;23;20022;-82
2022/04/03 04:00:45;;;;;;;6.18;2.90;;;;;;;;;;6100872;23;20413;-84
2022/04/03 04:03:12;;;;;;;2.35;2.10;;;;;;;;;;6124330;23;20054;-82
2022/04/03 04:05:38;;;;;;;4.25;2.10;;;;;;;;;;6125602;23;20018;-82
2022/04/03 04:08:05;;;;;;;3.72;2.55;;;;;;;;;;6125567;23;20028;-83
2022/04/03 04:10:31;;;;;;;2.92;2.47;;;;;;;;;;6100746;23;20443;-82
2022/04/03 04:12:57;;;;;;;5.47;2.40;;;;;;;;;;6124156;23;20387;-82
2022/04/03 04:15:23;;;;;;;2.50;2.15;;;;;;;;;;6124419;23;20101;-82
2022/04/03 04:17:52;;;;;;;2.40;2.17;;;;;;;;;;6100391;23;20014;-81
2022/04/03 04:20:19;;;;;;;5.20;2.30;;;;;;;;;;6124083;23;20124;-82
2022/04/03 04:22:46;;;;;;;3.03;2.38;;;;;;;;;;6124973;23;20033;-82
2022/04/03 04:25:13;;;;;;;3.58;2.33;;;;;;;;;;6100525;23;20014;-82
2022/04/03 04:27:40;;;;;;;5.50;2.78;;;;;;;;;;6099844;23;20100;-82
2022/04/03 04:30:06;;;;;;;2.38;2.17;;;;;;;;;;6124507;23;20018;-83
2022/04/03 04:32:32;;;;;;;3.92;2.65;;;;;;;;;;6100519;23;20018;-82
2022/04/03 04:34:58;;;;;;;9.68;2.85;;;;;;;;;;6100067;23;20045;-82
2022/04/03 04:37:24;;;;;;;3.42;2.03;;;;;;;;;;6100039;23;20037;-83
2022/04/03 04:39:51;;;;;;;2.50;2.28;;;;;;;;;;6124559;23;20014;-82
2022/04/03 04:42:17;;;;;;;3.47;2.72;;;;;;;;;;6124659;23;20022;-82
2022/04/03 04:44:43;;;;;;;5.57;2.60;;;;;;;;;;6124121;23;20029;-83
2022/04/03 04:47:09;;;;;;;2.80;2.35;;;;;;;;;;6102047;23;20021;-82
2022/04/03 04:49:35;;;;;;;8.55;2.50;;;;;;;;;;6104986;23;20025;-83
2022/04/03 04:52:03;;;;;;;3.67;2.45;;;;;;;;;;6105643;23;20040;-81
2022/04/03 04:54:30;;;;;;;4.18;1.88;;;;;;;;;;6129771;23;20014;-82
2022/04/03 04:56:56;;;;;;;4.20;2.72;;;;;;;;;;6128806;23;20029;-82
2022/04/03 04:59:22;;;;;;;3.45;1.90;;;;;;;;;;6129389;23;20020;-82
2022/04/03 05:01:48;;;;;;;4.80;2.50;;;;;;;;;;6104963;23;20017;-82
2022/04/03 05:04:15;;;;;;;2.88;2.20;;;;;;;;;;6155074;23;20017;-82
2022/04/03 05:06:42;;;;;;;3.92;2.50;;;;;;;;;;6128637;23;20454;-82
2022/04/03 05:09:08;;;;;;;4.28;2.03;;;;;;;;;;6128897;23;20350;-81
2022/04/03 05:11:36;;;;;;;4.43;2.13;;;;;;;;;;6129050;23;20021;-81
2022/04/03 05:14:03;;;;;;;3.45;2.70;;;;;;;;;;6104364;23;20045;-81
2022/04/03 05:16:29;;;;;;;2.63;2.10;;;;;;;;;;6104597;23;20018;-82
2022/04/03 05:18:55;;;;;;;3.58;2.20;;;;;;;;;;6104458;23;20039;-81
2022/04/03 05:21:22;;;;;;;6.07;2.53;;;;;;;;;;6104755;23;20394;-82
2022/04/03 05:23:49;;;;;;;4.82;2.45;;;;;;;;;;6129358;23;20013;-81
2022/04/03 05:26:16;;;;;;;5.32;2.13;;;;;;;;;;6129396;23;20033;-82
2022/04/03 05:28:43;;;;;;;3.83;1.95;;;;;;;;;;6129351;23;20088;-81
2022/04/03 05:31:09;;;;;;;3.05;2.25;;;;;;;;;;6105176;23;20494;-81
2022/04/03 05:33:37;;;;;;;4.35;2.40;;;;;;;;;;6128993;23;20529;-83
2022/04/03 05:36:04;;;;;;;4.40;2.20;;;;;;;;;;6104332;23;20073;-82
2022/04/03 05:38:30;;;;;;;1.90;1.73;;;;;;;;;;6104878;23;20021;-81
2022/04/03 05:40:56;;;;;;;2.20;1.50;;;;;;;;;;6129100;23;20526;-81
2022/04/03 05:43:22;;;;;;;2.63;1.77;;;;;;;;;;6105120;23;20462;-81
2022/04/03 05:45:48;;;;;;;1.33;1.23;;;;;;;;;;6129506;23;20018;-83
2022/04/03 05:48:14;;;;;;;9.00;1.63;;;;;;;;;;6124311;23;20037;-81
2022/04/03 05:50:41;;;;;;;2.35;1.45;;;;;;;;;;6124462;23;20033;-81
2022/04/03 05:53:07;;;;;;;4.47;1.40;;;;;;;;;;6124189;23;20022;-81
2022/04/03 05:55:33;;;;;;;2.60;1.90;;;;;;;;;;6125385;23;20014;-81
2022/04/03 05:58:00;;;;;;;4.40;2.08;;;;;;;;;;6103008;23;20073;-81
2022/04/03 06:00:26;;;;;;;2.42;1.73;;;;;;;;;;6127105;23;20100;-81
2022/04/03 06:02:52;;;;;;;1.65;1.45;;;;;;;;;;6102375;23;20026;-81
2022/04/03 06:05:20;;;;;;;3.58;1.55;;;;;;;;;;6101517;23;20017;-81
2022/04/03 06:07:46;;;;;;;2.22;1.77;;;;;;;;;;6125088;23;20014;-82
2022/04/03 06:10:13;;;;;;;3.03;1.50;;;;;;;;;;6101163;23;20021;-82
2022/04/03 06:12:50;;;;;;;4.57;1.27;;;;;;;;;;6101248;23;20018;-82
2022/04/03 06:15:16;;;;;;;9.30;2.83;;;;;;;;;;6125408;23;20065;-82
2022/04/03 06:17:42;;;;;;;4.10;1.67;;;;;;;;;;6126948;23;20069;-82
2022/04/03 06:20:08;;;;;;;5.07;1.90;;;;;;;;;;6126599;23;20018;-80
2022/04/03 06:22:34;;;;;;;5.03;1.50;;;;;;;;;;6126591;23;20018;-81
2022/04/03 06:25:00;;;;;;;2.53;1.40;;;;;;;;;;6127166;23;20030;-81
2022/04/03 06:27:27;;;;;;;2.53;1.73;;;;;;;;;;6126222;23;20084;-84
2022/04/03 06:29:53;;;;;;;2.45;1.73;;;;;;;;;;6125933;23;20049;-82
2022/04/03 06:32:19;;;;;;;5.00;1.65;;;;;;;;;;6124108;23;20347;-82
2022/04/03 06:34:45;;;;;;;1.88;1.70;;;;;;;;;;6126589;23;20026;-82
2022/04/03 06:37:12;;;;;;;3.58;1.60;;;;;;;;;;6128368;23;20081;-82
2022/04/03 06:39:38;;;;;;;5.53;1.90;;;;;;;;;;6125878;23;20026;-82
2022/04/03 06:42:05;;;;;;;3.83;1.45;;;;;;;;;;6126185;23;20101;-81
2022/04/03 06:44:31;;;;;;;2.95;1.70;;;;;;;;;;6125715;23;20018;-82
2022/04/03 06:46:57;;;;;;;2.28;2.03;;;;;;;;;;6124995;23;20026;-82
2022/04/03 06:49:23;;;;;;;4.05;1.70;;;;;;;;;;6101643;23;20097;-83
2022/04/03 06:51:49;;;;;;;4.90;2.10;;;;;;;;;;6126118;23;20478;-83
2022/04/03 06:54:15;;;;;;;2.05;1.55;;;;;;;;;;6126230;23;20029;-83
2022/04/03 06:56:43;;;;;;;4.78;1.83;;;;;;;;;;6101879;23;20028;-86
2022/04/03 06:59:10;;;;;;;3.30;1.50;;;;;;;;;;6099730;23;20038;-82
2022/04/03 07:01:36;;;;;;;6.28;1.98;;;;;;;;;;6099514;23;20108;-81
2022/04/03 07:04:02;;;;;;;2.10;1.33;;;;;;;;;;6124103;23;20020;-81
2022/04/03 07:06:28;;;;;;;3.88;1.75;;;;;;;;;;6123701;23;20022;-81
2022/04/03 07:08:54;;;;;;;2.55;1.20;;;;;;;;;;6124465;23;20018;-82
2022/04/03 07:11:20;;;;;;;2.90;2.45;;;;;;;;;;6112508;23;20450;-82
2022/04/03 07:13:48;;;;;;;1.70;1.30;;;;;;;;;;6098501;23;20104;-82
2022/04/03 07:16:15;;;;;;;7.00;1.48;;;;;;;;;;6123533;23;20116;-82
2022/04/03 07:18:41;;;;;;;1.23;1.13;;;;;;;;;;6124487;23;20017;-82
2022/04/03 07:21:07;;;;;;;1.58;1.48;;;;;;;;;;6123510;23;20022;-82
2022/04/03 07:23:33;;;;;;;2.28;1.35;;;;;;;;;;6123459;23;20022;-81
2022/04/03 07:25:59;;;;;;;2.58;1.25;;;;;;;;;;6098900;23;20018;-81
2022/04/03 07:28:25;;;;;;;2.97;1.38;;;;;;;;;;6123322;23;20022;-81
2022/04/03 07:30:51;;;;;;;2.22;1.10;;;;;;;;;;6098682;23;20553;-81
2022/04/03 07:33:21;;;;;;;2.58;1.55;;;;;;;;;;6123635;23;20578;-81
2022/04/03 07:35:50;;;;;;;1.48;1.38;;;;;;;;;;6099208;23;20021;-81
2022/04/03 07:38:16;;;;;;;4.63;1.45;;;;;;;;;;6100275;23;20025;-81
2022/04/03 07:40:42;;;;;;;1.25;1.05;;;;;;;;;;6125055;23;20030;-81
2022/04/03 07:43:08;;;;;;;1.23;1.00;;;;;;;;;;6124166;23;20076;-81
2022/04/03 07:45:34;;;;;;;3.15;1.30;;;;;;;;;;6124183;23;20446;-82
2022/04/03 07:48:00;;;;;;;3.85;1.10;;;;;;;;;;6124579;23;20026;-81
2022/04/03 07:50:27;;;;;;;4.30;1.17;;;;;;;;;;6123870;23;20018;-81
2022/04/03 07:52:53;;;;;;;4.75;1.40;;;;;;;;;;6124056;23;20025;-82
2022/04/03 07:55:19;;;;;;;2.55;1.48;;;;;;;;;;6100554;23;20037;-81
2022/04/03 07:57:45;;;;;;;1.50;1.20;;;;;;;;;;6099203;23;20021;-82
2022/04/03 08:00:12;;;;;;;1.60;1.27;;;;;;;;;;6124678;23;20407;-82
2022/04/03 08:02:39;;;;;;;1.50;1.40;;;;;;;;;;6123664;23;20775;-81
2022/04/03 08:05:06;;;;;;;3.53;1.27;;;;;;;;;;6099496;23;20018;-82
2022/04/03 08:07:40;;;;;;;4.07;1.33;;;;;;;;;;6099997;23;20022;-82
2022/04/03 08:10:08;;;;;;;2.53;1.45;;;;;;;;;;6098390;23;20076;-82
2022/04/03 08:12:34;;;;;;;1.45;1.10;;;;;;;;;;6099973;23;20021;-82
2022/04/03 08:15:00;;;;;;;2.47;1.20;;;;;;;;;;6099517;23;20073;-81
2022/04/03 08:17:26;;;;;;;1.75;1.20;;;;;;;;;;6097948;23;20054;-81
2022/04/03 08:19:52;;;;;;;6.90;1.75;;;;;;;;;;6122606;23;20022;-82
2022/04/03 08:22:18;;;;;;;2.33;1.67;;;;;;;;;;6099404;23;20034;-87
2022/04/03 08:24:44;;;;;;;3.33;1.30;;;;;;;;;;6122363;23;20343;-85
2022/04/03 08:27:12;;;;;;;2.60;0.93;;;;;;;;;;6124157;23;20025;-81
2022/04/03 08:29:38;;;;;;;1.42;1.05;;;;;;;;;;6123600;23;20056;-83
2022/04/03 08:32:04;;;;;;;1.23;1.13;;;;;;;;;;6124117;23;20418;-85
2022/04/03 08:34:30;;;;;;;1.83;0.93;;;;;;;;;;6100441;23;20080;-82
2022/04/03 08:36:57;;;;;;;19.23;2.03;;;;;;;;;;6124637;23;20462;-85
2022/04/03 08:39:23;;;;;;;1.50;1.00;;;;;;;;;;6099134;23;20037;-84
2022/04/03 08:41:50;;;;;;;1.95;1.00;;;;;;;;;;6097438;23;20477;-83
2022/04/03 08:44:16;;;;;;;3.95;1.02;;;;;;;;;;6098183;23;20028;-82
2022/04/03 08:46:45;;;;;;;0.85;0.70;;;;;;;;;;6100218;23;20481;-81
2022/04/03 08:49:12;;;;;;;2.75;1.30;;;;;;;;;;6123545;23;20041;-82
2022/04/03 08:51:39;;;;;;;3.63;1.52;;;6.10;99.90;;;;;;6098726;23;20053;-81
2022/04/03 08:54:09;;;;;;;1.08;0.98;;;;;;;;;;6124155;23;20399;-83
2022/04/03 08:56:35;;;;;;;1.05;0.98;;;;;;;;;;6099299;23;20061;-83
2022/04/03 08:59:02;;;;;;;4.68;1.02;;;;;;;;;;6099483;23;20018;-82
2022/04/03 09:01:28;;;;;;;4.80;1.17;;;;;;;;;;6098689;23;20022;-81
2022/04/03 09:03:54;;;;;;;3.13;1.20;;;;;;;;;;6099424;23;20022;-81
2022/04/03 09:06:21;;;;;;;1.73;1.55;;;;;;;;;;6098528;23;20077;-82
2022/04/03 09:08:48;;;;;;;2.08;1.20;;;;;;;;;;6123323;23;20113;-81
2022/04/03 09:11:15;;;;;;;3.85;1.33;;;;;;;;;;6122657;23;20064;-81
2022/04/03 09:13:41;;;;;;;7.07;1.20;;;;;;;;;;6123720;23;20474;-82
2022/04/03 09:16:07;;;;;;;1.90;1.13;;;;;;;;;;6123895;23;20021;-82
2022/04/03 09:18:46;;;;;;;7.45;1.00;;;;;;;;;;6123631;23;20013;-81
2022/04/03 09:21:16;;;;;;;1.58;1.17;;;;;;;;;;6098664;23;20064;-81
2022/04/03 09:24:02;;;;;;;2.50;1.30;;;;;;;;;;6123661;23;20029;-80
2022/04/03 09:26:29;;;;;;;4.40;1.08;;;;;;;;;;6122801;23;20061;-82
2022/04/03 09:29:15;;;;;;;3.55;1.15;;;;;;;;;;6122812;23;20471;-84
2022/04/03 09:31:41;;;;;;;2.88;1.48;;;;;;;;;;6100749;23;20021;-86
2022/04/03 09:34:08;;;;;;;2.65;1.13;;;;;;;;;;6100710;23;20022;-83
2022/04/03 09:36:35;;;;;;;1.77;1.27;;;;;;;;;;6101289;23;20024;-86
2022/04/03 09:39:08;;;;;;;2.28;1.15;;;;;;;;;;6100592;23;20068;-85
2022/04/03 09:41:35;;;;;;;3.78;1.17;;;;;;;;;;6099584;23;20025;-85
2022/04/03 09:44:15;;;;;;;3.88;1.50;;;;;;;;;;6125967;23;20021;-86
2022/04/03 09:46:41;;;;;;;3.75;1.23;;;;;;;;;;6126057;23;20450;-85
2022/04/03 09:49:21;;;;;;;1.30;1.10;;;;;;;;;;6099959;23;20030;-84
2022/04/03 09:51:48;;;;;;;1.30;1.20;;;;;;;;;;6124465;23;20018;-82
2022/04/03 09:54:19;;;;;;;12.90;1.23;;;;;;;;;;6126010;23;20025;-85
2022/04/03 09:56:45;;;;;;;4.38;1.17;;;;;;;;;;6102584;23;20018;-83
2022/04/03 09:59:15;;;;;;;1.33;1.10;;;;;;;;;;6102795;23;20018;-85
2022/04/03 10:01:42;;;;;;;3.15;1.05;;;;;;;;;;6101639;23;20018;-83
2022/04/03 10:04:14;;;;;;;1.73;1.17;;;;;;;;;;6101845;23;20339;-86
2022/04/03 10:06:40;;;;;;;1.15;1.08;;;;;;;;;;6102013;23;20018;-86
2022/04/03 10:09:14;;;;;;;2.17;1.00;;;;;;;;;;6125635;23;20025;-85
2022/04/03 10:11:41;;;;;;;1.83;1.00;;;;;;;;;;6100582;23;20017;-86
2022/04/03 10:14:08;;;;;;;4.40;1.30;;;;;;;;;;6101878;23;20342;-84
2022/04/03 10:16:35;;;;;;;4.05;1.20;;;;;;;;;;6101271;23;20070;-83
2022/04/03 10:19:01;;;;;;;1.73;1.00;;;;;;;;;;6125380;23;20447;-81
2022/04/03 10:21:30;;;;;;;1.45;1.10;;;;;;;;;;6101589;23;20454;-84
2022/04/03 10:24:00;;;;;;;0.70;0.70;;;;;;;;;;6100579;23;20026;-85
2022/04/03 10:26:27;;;;;;;2.13;1.00;;;;;;;;;;6101634;23;20057;-82
2022/04/03 10:28:54;;;;;;;0.68;0.68;;;;;;;;;;6101626;23;20530;-82
2022/04/03 10:31:20;;;;;;;0.90;0.90;;;;;;;;;;6100704;23;20017;-82
2022/04/03 10:33:51;;;;;;;2.67;0.80;;;;;;;;;;6100647;23;20070;-82
2022/04/03 10:36:24;;;;;;;1.27;0.73;;;;;;;;;;6102008;23;20018;-84
2022/04/03 10:39:02;;;;;;;0.93;0.60;;;;;;;;;;6125726;23;20029;-84
2022/04/03 10:41:35;;;;;;;0.98;0.75;;;;;;;;;;6099276;23;20018;-87
2022/04/03 10:44:10;;;;;;;0.40;0.40;;;;;;;;;;6101125;23;20058;-84
2022/04/03 10:47:01;;;;;;;2.60;0.65;;;6.70;99.90;;;;;;6100473;23;20470;-84
2022/04/03 10:49:31;;;;;;;0.75;0.60;;;;;;;;;;6125199;23;20343;-84
2022/04/03 10:52:02;;;;;;;1.13;0.60;;;;;;;;;;6124463;23;20096;-85
2022/04/03 10:54:32;;;;;;;0.68;0.60;;;;;;;;;;6125994;23;20018;-83
2022/04/03 10:57:40;;;;;;;2.08;0.93;;;7.00;99.90;;;;;;6100548;23;20494;-82
2022/04/03 11:00:12;;;;;;;0.60;0.60;;;;;;;;;;6124428;23;20022;-86
2022/04/03 11:02:39;;;;;;;0.70;0.70;;;;;;;;;;6101014;23;20025;-87
2022/04/03 11:05:26;;;;;;;1.02;0.70;;;;;;;;;;6100801;23;20080;-88
2022/04/03 11:07:55;;;;;;;3.20;0.90;;;;;;;;;;6124696;23;20511;-86
2022/04/03 11:10:40;;;;;;;1.52;0.77;;;;;;;;;;6124362;23;20018;-87
2022/04/03 11:13:09;;;;;;;0.88;0.88;;;;;;;;;;6125219;23;20053;-83
2022/04/03 11:15:53;;;;;;;3.90;1.30;;;;;;;;;;6100159;23;20022;-83
2022/04/03 11:18:29;;;;;;;0.85;0.85;;;;;;;;;;6098477;23;20021;-83
2022/04/03 11:21:18;;;;;;;0.82;0.75;;;;;;;;;;6124240;23;20022;-82
2022/04/03 11:23:46;;;;;;;0.93;0.55;;;7.40;99.90;;;;;;6041417;23;20030;-84
2022/04/03 11:26:13;;;;;;;0.73;0.57;;;;;;;;;;6041183;23;20066;-82
2022/04/03 11:28:42;;;;;;;0.50;0.50;;;;;;;;;;6017764;23;20023;-83
2022/04/03 11:31:10;;;;;;;0.50;0.50;;;;;;;;;;6040971;23;20022;-84
2022/04/03 11:33:37;;;;;;;3.38;0.80;;;6.30;99.90;;;;;;6016601;23;20046;-83
2022/04/03 11:36:05;;;;;;;0.80;0.60;;;;;;;;;;6040670;23;20025;-82
2022/04/03 11:38:35;;;;;;;0.73;0.73;;;;;;;;;;6017376;23;20015;-83
2022/04/03 11:41:02;;;;;;;1.20;0.80;;;;;;;;;;6016520;23;20026;-82
2022/04/03 11:43:29;;;;;;;3.60;0.90;;;;;;;;;;6041109;23;20384;-83
2022/04/03 11:45:56;;;;;;;1.70;0.95;;;;;;;;;;6017409;23;20019;-83
2022/04/03 11:48:28;;;;;;;4.25;0.77;;;;;;;;;;6040776;23;20074;-81
2022/04/03 11:51:07;;;;;;;2.30;1.10;;;;;;;;;;6040495;23;20019;-82
2022/04/03 11:53:33;;;;;;;1.20;1.10;;;;;;;;;;6017009;23;20026;-85
2022/04/03 11:56:06;;;;;;;4.35;2.22;;;;;;;;;;6016816;23;20027;-84
2022/04/03 11:58:34;;;;;;;1.00;0.90;;;;;;;;;;6018923;23;20479;-85
2022/04/03 12:01:07;;;;;;;1.65;1.30;;;;;;;;;;6095046;23;20332;-85
2022/04/03 12:03:34;;;;;;;2.70;1.40;;;;;;;;;;6101043;23;20105;-84
2022/04/03 12:06:10;;;;;;;3.10;1.20;;;;;;;;;;6122602;23;20014;-83
2022/04/03 12:08:39;;;;;;;2.58;1.13;;;;;;;;;;6123923;23;20129;-84
2022/04/03 12:11:35;;;;;;;1.40;1.15;;;;;;;;;;6098729;23;20417;-84
2022/04/03 12:14:02;;;;;;;1.65;1.40;;;;;;;;;;6040827;23;20019;-84
2022/04/03 12:16:29;;;;;;;4.82;1.48;;;;;;;;;;6039932;23;20456;-84
2022/04/03 12:19:05;;;;;;;1.40;1.20;;;;;;;;;;6016893;23;20019;-84
2022/04/03 12:21:38;;;;;;;3.08;1.30;;;;;;;;;;6040482;23;20117;-84
2022/04/03 12:24:05;;;;;;;6.93;2.00;;;;;;;;;;6041290;23;20050;-83
2022/04/03 12:26:31;;;;;;;2.50;1.35;;;;;;;;;;6041602;23;20081;-83
2022/04/03 12:28:58;;;;;;;0.90;0.90;;;;;;;;;;6017722;23;20015;-84
2022/04/03 12:31:31;;;;;;;1.48;1.00;;;;;;;;;;6016288;23;20023;-83
2022/04/03 12:34:04;;;;;;;1.95;1.15;;;;;;;;;;6017098;23;20078;-83
2022/04/03 12:36:39;;;;;;;1.20;1.10;;;;;;;;;;6018330;23;20018;-84
2022/04/03 12:39:05;;;;;;;1.52;1.00;;;;;;;;;;6017445;23;20150;-84
2022/04/03 12:41:32;;;;;;;3.13;2.05;;;;;;;;;;6016547;23;20019;-83
2022/04/03 12:43:59;;;;;;;1.05;0.90;;;;;;;;;;6040962;23;20034;-84
2022/04/03 12:46:36;;;;;;;3.28;1.85;;;;;;;;;;6040374;23;20031;-84
2022/04/03 12:49:02;;;;;;;4.63;1.50;;;;;;;;;;6039801;23;20023;-84
2022/04/03 12:51:28;;;;;;;1.65;1.05;;;;;;;;;;6093360;23;20332;-84
2022/04/03 12:53:57;;;;;;;1.58;0.90;;;;;;;;;;6099501;23;20018;-84
2022/04/03 12:58:24;;;;;;;0.90;0.90;;;;;;;;;;6121682;23;20014;-84
2022/04/03 12:59:20;;;;;;;1.75;1.08;;;;;;;;;;6123629;23;20026;-84
2022/04/03 13:01:52;;;;;;;1.55;1.30;;;7.50;99.90;;;;;;6122056;23;20049;-84
2022/04/03 13:04:30;;;;;;;1.70;1.17;;;;;;;;;;6123835;23;20020;-84
2022/04/03 13:06:57;;;;;;;5.55;1.27;;;;;;;;;;6125069;23;20098;-84
2022/04/03 13:09:23;;;;;;;3.13;1.25;;;;;;;;;;6100688;23;20014;-84
2022/04/03 13:11:50;;;;;;;1.20;1.10;;;;;;;;;;6099066;23;20029;-84
2022/04/03 13:14:17;;;;;;;2.10;1.27;;;;;;;;;;6125361;23;20022;-84
2022/04/03 13:16:44;;;;;;;7.00;1.50;;;7.10;99.90;;;;;;6124801;23;20018;-83
2022/04/03 13:19:10;;;;;;;3.33;1.98;;;;;;;;;;6125808;23;20026;-84
2022/04/03 13:21:37;;;;;;;1.48;1.30;;;;;;;;;;6123264;23;20073;-85
2022/04/03 13:24:04;;;;;;;1.40;1.02;;;;;;;;;;6101186;23;20029;-85
2022/04/03 13:26:30;;;;;;;2.25;0.80;;;;;;;;;;6125338;23;20066;-86
2022/04/03 13:28:56;;;;;;;1.58;1.05;;;;;;;;;;6123630;23;20091;-84
2022/04/03 13:31:23;;;;;;;2.20;0.90;;;7.40;99.90;;;;;;6124814;23;20088;-85
2022/04/03 13:33:49;;;;;;;4.65;1.20;;;;;;;;;;6099569;23;20101;-85
2022/04/03 13:36:15;;;;;;;1.95;1.17;;;;;;;;;;6127049;23;20092;-83
2022/04/03 13:38:41;;;;;;;4.03;0.90;;;;;;;;;;6127295;23;20030;-84
2022/04/03 13:41:08;;;;;;;1.35;1.25;;;;;;;;;;6124491;23;20402;-84
2022/04/03 13:43:34;;;;;;;3.13;1.27;;;;;;;;;;6100116;23;20455;-86
2022/04/03 13:46:03;;;;;;;2.67;0.88;;;;;;;;;;6100966;23;20053;-86
2022/04/03 13:48:35;;;;;;;2.85;1.20;;;;;;;;;;6123126;23;20048;-84
2022/04/03 13:51:02;;;;;;;1.02;0.82;;;;;;;;;;6097556;23;20022;-84
2022/04/03 13:53:29;;;;;;;2.50;1.05;;;;;;;;;;6100618;23;20458;-81
2022/04/03 13:55:55;;;;;;;1.38;1.10;;;;;;;;;;6101608;23;20022;-85
2022/04/03 13:58:26;;;;;;;1.70;1.00;;;;;;;;;;6126279;23;20444;-84
2022/04/03 14:00:53;;;;;;;2.67;1.02;;;;;;;;;;6125308;23;20324;-84
2022/04/03 14:03:22;;;;;;;1.83;1.13;;;;;;;;;;6124261;23;20017;-86
2022/04/03 14:05:51;;;;;;;3.67;1.50;;;;;;;;;;6126304;23;20029;-85
2022/04/03 14:08:17;;;;;;;6.03;1.27;;;;;;;;;;6125942;23;20032;-85
2022/04/03 14:10:44;;;;;;;2.05;1.20;;;;;;;;;;6124867;23;20014;-87
2022/04/03 14:13:10;;;;;;;2.97;1.75;;;;;;;;;;6101559;23;20022;-84
2022/04/03 14:15:38;;;;;;;2.40;1.13;;;;;;;;;;6102117;23;20439;-85
2022/04/03 14:18:04;;;;;;;2.20;2.00;;;;;;;;;;6127153;23;20018;-84
2022/04/03 14:20:30;;;;;;;3.20;1.25;;;;;;;;;;6101023;23;20017;-87
2022/04/03 14:22:56;;;;;;;2.13;1.20;;;;;;;;;;6127591;23;20135;-86
2022/04/03 14:25:22;;;;;;;1.73;1.17;;;;;;;;;;6102259;23;20112;-87
2022/04/03 14:27:49;;;;;;;0.73;0.73;;;;;;;;;;6126563;23;20049;-87
2022/04/03 14:30:15;;;;;;;2.08;0.98;;;;;;;;;;6126401;23;20101;-87
2022/04/03 14:32:45;;;;;;;1.55;0.95;;;;;;;;;;6126495;23;20022;-88
2022/04/03 14:35:12;;;;;;;1.02;0.95;;;;;;;;;;6127092;23;20087;-85
2022/04/03 14:37:38;;;;;;;2.20;0.80;;;;;;;;;;6100809;23;20022;-86
2022/04/03 14:40:04;;;;;;;0.85;0.73;;;;;;;;;;6101455;23;20026;-87
2022/04/03 14:42:30;;;;;;;0.82;0.63;;;;;;;;;;6125979;23;20025;-86
2022/04/03 14:44:56;;;;;;;2.80;0.80;;;;;;;;;;6125655;23;20022;-86